Time;durP1;ratioP1;P1;durP2;ratioP2;P2;SDS_P1;SDS_P2;PMS_P1;PMS_P2;Temp;Humidity;BMP_temperature;BMP_pressure;BME280_temperature;BME280_humidity;BME280_pressure;Samples;Min_cycle;Max_cycle;Signal;HPM_P1;HPM_P2
2023/05/28 00:00:26;;;;;;;6.50;2.90;;;11.50;99.90;;;;;;2657128;39;21402;31
2023/05/28 00:03:04;;;;;;;4.30;2.60;;;11.40;99.90;;;;;;2603050;54;20042;31
2023/05/28 00:05:40;;;;;;;7.65;3.28;;;11.40;99.90;;;;;;2603065;54;20052;31
2023/05/28 00:08:16;;;;;;;6.77;3.13;;;11.40;99.90;;;;;;2602852;54;20049;31
2023/05/28 00:10:52;;;;;;;6.85;3.60;;;11.30;99.90;;;;;;2603021;54;20267;31
2023/05/28 00:13:26;;;;;;;7.70;2.75;;;11.20;99.90;;;;;;2603070;54;20054;31
2023/05/28 00:16:04;;;;;;;5.60;2.58;;;11.20;99.90;;;;;;2602951;54;20030;31
2023/05/28 00:18:40;;;;;;;5.45;2.83;;;11.20;99.90;;;;;;2602937;54;20866;31
2023/05/28 00:21:15;;;;;;;5.32;2.88;;;11.10;99.90;;;;;;2621692;46;20754;31
2023/05/28 00:23:51;;;;;;;4.15;2.42;;;11.10;99.90;;;;;;2603005;54;20030;31
2023/05/28 00:26:29;;;;;;;6.03;3.10;;;11.10;99.90;;;;;;2602925;54;20027;31
2023/05/28 00:29:05;;;;;;;4.87;2.90;;;11.00;99.90;;;;;;2602969;54;20745;31
2023/05/28 00:31:42;;;;;;;5.35;2.78;;;10.90;99.90;;;;;;2603033;54;20069;31
2023/05/28 00:34:18;;;;;;;5.70;3.00;;;10.80;99.90;;;;;;2621292;46;20105;31
2023/05/28 00:39:24;;;;;;;8.05;3.20;;;10.80;99.90;;;;;;2608572;39;21648;31
2023/05/28 00:42:04;;;;;;;5.65;3.55;;;10.70;99.90;;;;;;2621167;46;20874;31
2023/05/28 00:44:41;;;;;;;6.00;2.73;;;10.60;99.90;;;;;;2602618;54;19950;31
2023/05/28 00:47:20;;;;;;;5.43;2.80;;;10.60;99.90;;;;;;2608975;39;20876;31
2023/05/28 00:49:57;;;;;;;6.07;3.30;;;10.50;99.90;;;;;;2602934;54;20049;31
2023/05/28 00:52:32;;;;;;;5.87;2.40;;;10.40;99.90;;;;;;2602790;54;20093;31
2023/05/28 00:55:10;;;;;;;6.40;2.90;;;10.40;99.90;;;;;;2621590;46;20105;31
2023/05/28 00:57:45;;;;;;;6.18;3.30;;;10.30;99.90;;;;;;2603005;54;20860;31
2023/05/28 01:00:20;;;;;;;6.90;3.60;;;10.20;99.90;;;;;;2602869;54;20022;31
2023/05/28 01:02:58;;;;;;;8.35;3.95;;;10.20;99.90;;;;;;2601953;54;20034;31
2023/05/28 01:05:34;;;;;;;4.43;3.17;;;10.10;99.90;;;;;;2628741;39;20324;31
2023/05/28 01:08:09;;;;;;;5.80;3.07;;;10.10;99.90;;;;;;2621026;46;20089;31
2023/05/28 01:10:45;;;;;;;4.75;2.55;;;10.10;99.90;;;;;;2603095;54;20873;31
2023/05/28 01:13:20;;;;;;;6.25;2.80;;;10.00;99.90;;;;;;2602438;54;20899;31
2023/05/28 01:15:55;;;;;;;5.83;3.13;;;10.00;99.90;;;;;;2602487;54;20026;31
2023/05/28 01:18:37;;;;;;;6.20;3.15;;;9.90;99.90;;;;;;2602735;54;20027;31
2023/05/28 01:21:11;;;;;;;5.78;3.28;;;9.90;99.90;;;;;;2602644;54;20080;31
2023/05/28 01:23:52;;;;;;;7.85;3.35;;;9.80;99.90;;;;;;2602772;54;20856;31
2023/05/28 01:26:28;;;;;;;4.53;3.10;;;9.80;99.90;;;;;;2602852;54;20037;31
2023/05/28 01:29:03;;;;;;;6.03;2.65;;;9.70;99.90;;;;;;2602914;54;20027;31
2023/05/28 01:31:40;;;;;;;5.47;2.90;;;9.60;99.90;;;;;;2602718;54;19942;31
2023/05/28 01:34:16;;;;;;;7.13;3.60;;;9.60;99.90;;;;;;2602847;54;20500;31
2023/05/28 01:36:56;;;;;;;8.00;3.58;;;9.50;99.90;;;;;;2602559;54;19931;31
2023/05/28 01:39:38;;;;;;;8.52;3.47;;;9.50;99.90;;;;;;2614227;47;20026;31
2023/05/28 01:42:12;;;;;;;4.50;2.70;;;9.40;99.90;;;;;;2602850;54;20105;31
2023/05/28 01:44:48;;;;;;;6.60;3.20;;;9.30;99.90;;;;;;2602812;54;20050;31
2023/05/28 01:47:25;;;;;;;7.37;3.40;;;9.30;99.90;;;;;;2621339;47;20046;31
2023/05/28 01:50:03;;;;;;;6.00;2.92;;;9.30;99.90;;;;;;2603401;54;20353;31
2023/05/28 01:52:38;;;;;;;;;;;9.30;99.90;;;;;;2603771;54;20050;31
2023/05/28 01:55:18;;;;;;;5.75;2.72;;;9.30;99.90;;;;;;2621926;46;19934;31
2023/05/28 01:57:50;;;;;;;6.25;3.05;;;9.30;99.90;;;;;;2604004;54;20921;31
2023/05/28 02:00:26;;;;;;;7.88;3.30;;;9.30;99.90;;;;;;2603020;54;20046;31
2023/05/28 02:02:59;;;;;;;9.53;3.50;;;9.30;99.90;;;;;;2622160;46;20030;31
2023/05/28 02:05:36;;;;;;;5.05;2.75;;;9.20;99.90;;;;;;2603673;54;20038;31
2023/05/28 02:08:11;;;;;;;9.50;3.25;;;9.20;99.90;;;;;;2603605;54;20053;31
2023/05/28 02:10:49;;;;;;;5.60;2.90;;;9.20;99.90;;;;;;2603599;54;20038;31
2023/05/28 02:13:27;;;;;;;6.50;3.10;;;9.10;99.90;;;;;;2603431;54;20069;31
2023/05/28 02:16:03;;;;;;;8.30;3.92;;;9.10;99.90;;;;;;2621961;46;20026;31
2023/05/28 02:18:39;;;;;;;6.15;3.30;;;9.10;99.90;;;;;;2608132;46;19970;31
2023/05/28 02:21:14;;;;;;;7.50;3.00;;;9.10;99.90;;;;;;2602386;54;20024;31
2023/05/28 02:23:49;;;;;;;9.38;3.40;;;9.00;99.90;;;;;;2618932;46;21226;31
2023/05/28 02:26:27;;;;;;;7.85;2.90;;;9.00;99.90;;;;;;2603223;54;20050;31
2023/05/28 02:29:01;;;;;;;5.20;2.97;;;9.00;99.90;;;;;;2603490;54;20042;31
2023/05/28 02:31:36;;;;;;;5.20;3.28;;;8.90;99.90;;;;;;2621423;46;20042;31
2023/05/28 02:34:12;;;;;;;6.73;3.70;;;8.90;99.90;;;;;;2626346;39;21396;31
2023/05/28 02:36:46;;;;;;;9.90;5.30;;;8.80;99.90;;;;;;2603346;54;20266;31
2023/05/28 02:39:22;;;;;;;13.90;6.32;;;8.80;99.90;;;;;;2603571;54;20318;31
2023/05/28 02:42:00;;;;;;;11.45;6.43;;;8.70;99.90;;;;;;2603533;54;20073;31
2023/05/28 02:44:36;;;;;;;12.07;6.82;;;8.70;99.90;;;;;;2603518;54;20101;31
2023/05/28 02:47:11;;;;;;;10.65;5.65;;;8.60;99.90;;;;;;2603321;54;20096;31
2023/05/28 02:49:47;;;;;;;8.70;4.65;;;8.50;99.90;;;;;;2603281;54;20124;31
2023/05/28 02:52:21;;;;;;;8.80;4.07;;;8.50;99.90;;;;;;2603305;54;20135;31
2023/05/28 02:54:57;;;;;;;10.18;4.38;;;8.50;99.90;;;;;;2603416;54;20026;31
2023/05/28 02:57:40;;;;;;;7.07;4.43;;;8.40;99.90;;;;;;2603203;54;20027;31
2023/05/28 03:00:21;;;;;;;8.63;4.13;;;8.40;99.90;;;;;;2603270;54;21554;31
2023/05/28 03:03:00;;;;;;;5.82;3.70;;;8.30;99.90;;;;;;2603309;54;20085;31
2023/05/28 03:05:35;;;;;;;5.20;3.42;;;8.30;99.90;;;;;;2602490;54;20875;31
2023/05/28 03:08:15;;;;;;;6.53;4.00;;;8.30;99.90;;;;;;2614335;46;20871;31
2023/05/28 03:10:51;;;;;;;6.32;3.88;;;8.20;99.90;;;;;;2622082;46;20042;31
2023/05/28 03:13:33;;;;;;;6.20;3.55;;;8.20;99.90;;;;;;2603155;54;20117;31
2023/05/28 03:16:10;;;;;;;7.28;3.63;;;8.20;99.90;;;;;;2603311;54;20038;31
2023/05/28 03:18:57;;;;;;;6.22;3.40;;;8.20;99.90;;;;;;2603317;54;20172;31
2023/05/28 03:24:22;;;;;;;5.65;3.15;;;8.20;99.90;;;;;;2621920;46;20048;31
2023/05/28 03:27:05;;;;;;;5.65;3.20;;;8.20;99.90;;;;;;2621706;46;20092;31
2023/05/28 03:29:52;;;;;;;6.60;3.25;;;8.20;99.90;;;;;;2603260;54;20022;31
2023/05/28 03:32:33;;;;;;;8.27;3.80;;;8.30;99.90;;;;;;2603175;54;20042;31
2023/05/28 03:35:11;;;;;;;5.82;3.80;;;8.40;99.90;;;;;;2615111;46;20034;31
2023/05/28 03:37:57;;;;;;;5.22;3.10;;;8.50;99.90;;;;;;2602577;54;20914;31
2023/05/28 03:40:33;;;;;;;7.15;3.28;;;8.60;99.90;;;;;;2621640;46;20854;31
2023/05/28 03:43:12;;;;;;;7.18;3.53;;;8.70;99.90;;;;;;2603334;54;20027;31
2023/05/28 03:45:54;;;;;;;7.60;3.25;;;8.80;99.90;;;;;;2603300;54;20060;31
2023/05/28 03:48:36;;;;;;;7.53;3.30;;;9.00;99.90;;;;;;2603366;54;20910;31
2023/05/28 03:51:23;;;;;;;9.82;3.90;;;9.10;99.90;;;;;;2603234;54;20046;31
2023/05/28 03:54:04;;;;;;;7.30;3.15;;;9.30;99.90;;;;;;2621500;46;20030;31
2023/05/28 03:56:45;;;;;;;6.57;3.63;;;9.40;99.90;;;;;;2603202;54;20049;31
2023/05/28 03:59:23;;;;;;;5.70;3.30;;;9.50;99.90;;;;;;2603399;54;20022;31
2023/05/28 04:04:52;;;;;;;7.45;3.80;;;9.90;99.90;;;;;;2602271;54;20080;31
2023/05/28 04:07:29;;;;;;;7.27;3.87;;;10.10;99.90;;;;;;2603176;54;20767;31
2023/05/28 04:10:10;;;;;;;6.00;3.67;;;10.20;99.90;;;;;;2610786;46;21085;31
2023/05/28 04:12:48;;;;;;;5.47;3.28;;;10.40;99.90;;;;;;2602264;54;20033;31
2023/05/28 04:15:25;;;;;;;7.07;3.30;;;10.60;99.90;;;;;;2603393;54;20049;31
2023/05/28 04:18:05;;;;;;;4.20;3.20;;;10.80;99.90;;;;;;2621598;46;19946;31
2023/05/28 04:20:46;;;;;;;6.00;3.05;;;10.90;99.90;;;;;;2621897;46;20023;31
2023/05/28 04:23:23;;;;;;;8.20;3.72;;;11.10;99.90;;;;;;2603340;54;20069;31
2023/05/28 04:25:59;;;;;;;6.47;3.08;;;11.40;99.90;;;;;;2667962;39;21424;31
2023/05/28 04:28:40;;;;;;;6.22;3.47;;;11.50;99.90;;;;;;2621769;46;20028;31
2023/05/28 04:31:27;;;;;;;7.88;3.85;;;11.70;99.90;;;;;;2602963;54;20847;31
2023/05/28 04:34:10;;;;;;;8.05;3.63;;;11.90;99.90;;;;;;2620939;46;22127;31
2023/05/28 04:36:51;;;;;;;6.10;3.60;;;12.20;99.90;;;;;;2603133;54;20120;31
2023/05/28 04:39:26;;;;;;;7.03;3.30;;;12.40;99.90;;;;;;2603055;54;20064;31
2023/05/28 04:42:09;;;;;;;8.35;3.65;;;12.60;99.90;;;;;;2603306;54;20026;31
2023/05/28 04:44:47;;;;;;;6.15;3.30;;;12.70;99.90;;;;;;2603029;54;20112;31
2023/05/28 04:47:28;;;;;;;11.40;4.20;;;12.90;99.90;;;;;;2621316;46;20940;31
2023/05/28 04:50:10;;;;;;;7.78;3.60;;;13.10;99.90;;;;;;2621264;46;20878;31
2023/05/28 04:52:46;;;;;;;5.90;3.25;;;13.30;99.90;;;;;;2606456;46;20947;31
2023/05/28 04:55:27;;;;;;;6.10;3.10;;;13.50;99.90;;;;;;2621575;46;20049;31
2023/05/28 04:58:03;;;;;;;6.65;3.63;;;13.70;99.90;;;;;;2603147;54;20031;31
2023/05/28 05:00:41;;;;;;;8.43;3.77;;;13.90;99.90;;;;;;2603202;54;20022;31
2023/05/28 05:03:22;;;;;;;6.93;3.47;;;14.10;99.90;;;;;;2608848;39;21219;31
2023/05/28 05:05:59;;;;;;;6.97;3.60;;;14.30;99.90;;;;;;2603256;54;20909;31
2023/05/28 05:08:46;;;;;;;4.80;3.00;;;14.40;99.90;;;;;;2602736;54;20026;31
2023/05/28 05:11:26;;;;;;;8.98;4.05;;;14.60;99.90;;;;;;2602961;54;20033;31
2023/05/28 05:14:06;;;;;;;8.57;4.22;;;14.60;99.90;;;;;;2612301;47;20892;31
2023/05/28 05:16:45;;;;;;;8.77;4.55;;;14.80;99.90;;;;;;2621100;47;20927;31
2023/05/28 05:19:25;;;;;;;9.35;3.90;;;14.90;99.90;;;;;;2603212;54;19934;31
2023/05/28 05:22:04;;;;;;;9.55;3.83;;;15.00;99.90;;;;;;2602842;54;25069;31
2023/05/28 05:24:48;;;;;;;6.10;3.43;;;15.20;99.90;;;;;;2606960;47;20184;31
2023/05/28 05:27:28;;;;;;;6.20;3.40;;;15.50;99.90;;;;;;2603794;54;20046;31
2023/05/28 05:30:10;;;;;;;8.27;3.15;;;15.60;99.90;;;;;;2603637;54;20046;31
2023/05/28 05:32:47;;;;;;;11.77;3.97;;;15.80;99.90;;;;;;2603502;54;20044;31
2023/05/28 05:35:24;;;;;;;5.75;3.42;;;16.00;99.90;;;;;;2603823;54;20046;31
2023/05/28 05:38:14;;;;;;;8.23;3.65;;;16.20;99.90;;;;;;2603915;54;21645;31
2023/05/28 05:46:53;;;;;;;7.10;2.95;;;16.70;99.90;;;;;;2603389;54;21183;31
2023/05/28 05:49:41;;;;;;;4.77;3.33;;;16.80;99.90;;;;;;2612363;46;20029;31
2023/05/28 05:52:22;;;;;;;10.15;3.63;;;17.00;99.90;;;;;;2656059;39;21371;31
2023/05/28 05:55:09;;;;;;;6.22;3.30;;;17.10;99.90;;;;;;2602881;54;20053;31
2023/05/28 06:03:56;;;;;;;6.75;3.25;;;17.60;99.90;;;;;;2603630;54;20031;31
2023/05/28 06:10:09;;;;;;;7.10;3.40;;;17.90;99.90;;;;;;2603641;54;20034;31
2023/05/28 06:16:04;;;;;;;6.32;3.28;;;18.20;99.90;;;;;;2603474;54;20080;31
2023/05/28 06:21:44;;;;;;;6.70;2.80;;;18.70;99.40;;;;;;2602990;54;20034;31
2023/05/28 06:27:41;;;;;;;11.38;2.80;;;19.20;99.50;;;;;;2605857;46;20024;31
2023/05/28 06:33:22;;;;;;;7.07;3.00;;;19.70;98.00;;;;;;2631008;54;20033;-93
2023/05/28 06:35:59;;;;;;;5.50;2.55;;;19.90;96.80;;;;;;2622111;46;20034;31
2023/05/28 06:38:39;;;;;;;7.35;2.75;;;20.10;95.80;;;;;;2608526;46;20132;31
2023/05/28 06:41:19;;;;;;;4.53;2.27;;;20.30;95.20;;;;;;2603400;54;20033;31
2023/05/28 06:47:22;;;;;;;5.13;2.55;;;20.20;93.90;;;;;;2602845;54;20034;31
2023/05/28 06:50:24;;;;;;;5.40;2.30;;;20.20;93.10;;;;;;2605654;46;20034;31
2023/05/28 07:06:10;;;;;;;11.15;2.25;;;20.60;92.00;;;;;;2621378;46;20920;31
2023/05/28 07:11:46;;;;;;;5.95;2.20;;;21.00;90.90;;;;;;2621972;46;20042;31
2023/05/28 07:20:51;;;;;;;4.80;1.77;;;21.70;88.30;;;;;;2603287;54;20288;31
2023/05/28 07:23:49;;;;;;;4.60;2.15;;;21.70;87.00;;;;;;2603371;54;20098;31
2023/05/28 07:27:01;;;;;;;6.10;1.98;;;21.90;86.20;;;;;;2603263;54;20072;31
2023/05/28 07:30:14;;;;;;;2.67;1.63;;;22.20;85.70;;;;;;2603523;54;20049;31
2023/05/28 08:03:31;;;;;;;;;;;;;;;;;;;;;
2023/05/28 08:35:56;;;;;;;5.30;1.00;;;24.50;66.60;;;;;;2621504;46;19934;31
2023/05/28 08:55:13;;;;;;;5.32;1.17;;;24.80;63.70;;;;;;2603183;54;20022;31
2023/05/28 08:59:00;;;;;;;4.50;1.08;;;24.70;64.10;;;;;;2621106;46;20089;31
2023/05/28 09:05:03;;;;;;;2.90;1.10;;;24.70;64.40;;;;;;2602561;54;20258;31
2023/05/28 09:08:03;;;;;;;2.55;1.05;;;24.60;63.60;;;;;;2602803;54;20046;31
2023/05/28 09:10:52;;;;;;;4.35;1.05;;;24.70;62.20;;;;;;2602769;54;25133;31
2023/05/28 09:13:40;;;;;;;2.10;1.20;;;24.80;61.50;;;;;;2601976;54;20147;31
2023/05/28 09:16:36;;;;;;;2.63;1.10;;;24.90;62.00;;;;;;2602791;54;20065;31
2023/05/28 09:19:24;;;;;;;3.55;1.10;;;24.90;61.60;;;;;;2621596;47;20126;31
2023/05/28 09:22:28;;;;;;;5.97;1.48;;;25.00;62.90;;;;;;2603026;54;20035;31
2023/05/28 09:25:28;;;;;;;4.28;1.40;;;25.00;60.90;;;;;;2602667;54;20120;31
2023/05/28 09:31:14;;;;;;;4.53;1.20;;;24.80;59.70;;;;;;2602019;54;20249;31
2023/05/28 09:33:56;;;;;;;2.75;0.95;;;24.90;61.00;;;;;;2601953;54;19942;31
2023/05/28 09:36:58;;;;;;;2.80;1.25;;;25.20;61.80;;;;;;2602614;54;21211;31
2023/05/28 09:45:52;;;;;;;5.80;1.10;;;25.30;61.10;;;;;;2602757;54;20864;31
2023/05/28 09:49:02;;;;;;;4.20;1.00;;;25.60;61.90;;;;;;2602519;54;20779;31
2023/05/28 09:51:55;;;;;;;2.63;1.00;;;25.70;61.70;;;;;;2610752;47;20042;31
2023/05/28 09:58:08;;;;;;;1.45;0.85;;;25.90;59.90;;;;;;2621001;47;20034;31
2023/05/28 10:01:00;;;;;;;3.42;0.98;;;25.90;59.10;;;;;;2602508;54;20061;31
2023/05/28 10:07:28;;;;;;;4.13;1.35;;;26.10;60.90;;;;;;2602503;54;20026;31
2023/05/28 10:10:22;;;;;;;4.15;1.10;;;26.00;61.70;;;;;;2604498;47;20023;31
2023/05/28 10:16:33;;;;;;;4.00;1.10;;;26.10;60.30;;;;;;2603634;46;20031;31
2023/05/28 10:19:29;;;;;;;2.30;1.10;;;26.10;59.60;;;;;;2603091;54;19942;31
2023/05/28 10:22:26;;;;;;;2.63;1.17;;;25.80;58.50;;;;;;2603612;54;20030;31
2023/05/28 10:25:14;;;;;;;4.97;1.13;;;26.00;59.00;;;;;;2621927;46;20049;31
2023/05/28 10:28:05;;;;;;;2.13;1.00;;;25.90;58.90;;;;;;2621656;46;20093;31
2023/05/28 10:31:13;;;;;;;3.40;1.15;;;25.90;59.80;;;;;;2603231;54;20842;31
2023/05/28 10:33:58;;;;;;;4.70;1.30;;;25.90;59.40;;;;;;2603337;54;20898;31
2023/05/28 10:37:14;;;;;;;4.40;1.50;;;26.00;58.00;;;;;;2603249;54;20022;31
2023/05/28 10:40:14;;;;;;;3.33;1.02;;;25.90;59.80;;;;;;2621554;46;20093;31
2023/05/28 10:46:53;;;;;;;5.10;1.10;;;26.00;58.00;;;;;;2603219;54;20022;31
2023/05/28 10:49:36;;;;;;;3.37;1.40;;;25.80;55.90;;;;;;2603429;54;20848;31
2023/05/28 10:58:43;;;;;;;4.40;1.27;;;25.70;57.10;;;;;;2603430;54;20042;31
2023/05/28 11:01:37;;;;;;;2.55;1.10;;;25.50;56.70;;;;;;2603107;54;20911;31
2023/05/28 11:07:13;;;;;;;4.65;0.93;;;25.30;58.40;;;;;;2603945;54;20065;31
2023/05/28 11:09:56;;;;;;;5.50;1.20;;;25.30;56.90;;;;;;2632772;54;19954;-95
2023/05/28 11:12:36;;;;;;;5.13;2.13;;;25.30;57.80;;;;;;2603496;54;20029;31
2023/05/28 11:33:15;;;;;;;4.45;1.40;;;24.80;58.70;;;;;;2602325;54;20818;31
2023/05/28 11:50:47;;;;;;;3.90;1.80;;;24.50;60.90;;;;;;2602877;54;20837;31
2023/05/28 11:59:25;;;;;;;3.85;1.30;;;24.10;60.80;;;;;;2602529;46;20923;31
2023/05/28 12:05:19;;;;;;;4.90;0.90;;;23.90;61.10;;;;;;2611854;54;20022;31
2023/05/28 12:20:26;;;;;;;3.05;1.00;;;23.80;60.50;;;;;;2601875;54;20038;31
2023/05/28 12:23:12;;;;;;;7.40;1.20;;;23.80;61.30;;;;;;2654580;39;22210;31
2023/05/28 12:29:01;;;;;;;2.47;1.42;;;23.70;60.00;;;;;;2602874;54;20919;31
2023/05/28 12:31:41;;;;;;;2.97;0.90;;;23.60;60.80;;;;;;2602855;54;20053;31
2023/05/28 12:34:22;;;;;;;;;;;23.50;60.40;;;;;;2603141;54;20759;31
2023/05/28 12:40:13;;;;;;;3.30;1.20;;;23.40;60.10;;;;;;2603274;54;20038;31
2023/05/28 12:46:10;;;;;;;3.22;1.50;;;23.30;61.70;;;;;;2602215;54;20908;31
2023/05/28 12:57:59;;;;;;;2.10;0.95;;;23.40;61.30;;;;;;2602727;54;20051;31
2023/05/28 13:22:26;;;;;;;4.95;1.40;;;23.30;60.60;;;;;;2601623;54;20112;31
2023/05/28 13:43:56;;;;;;;3.10;0.90;;;23.10;61.30;;;;;;2600720;54;20085;31
2023/05/28 17:40:39;;;;;;;3.28;1.20;;;21.40;67.50;;;;;;2603218;54;20931;31
2023/05/28 17:43:21;;;;;;;2.65;1.20;;;21.30;67.70;;;;;;2607011;46;20851;31
2023/05/28 17:46:12;;;;;;;8.05;1.50;;;21.30;69.80;;;;;;2603981;54;20055;31
2023/05/28 17:48:49;;;;;;;20.38;5.50;;;21.40;70.80;;;;;;2622393;46;20869;31
2023/05/28 17:51:26;;;;;;;2.95;1.27;;;21.30;72.30;;;;;;2622155;46;20026;31
2023/05/28 17:54:06;;;;;;;6.00;1.50;;;21.20;69.00;;;;;;2603666;54;20772;31
2023/05/28 17:56:53;;;;;;;5.57;1.43;;;21.20;69.30;;;;;;2602893;54;20027;31
2023/05/28 17:59:44;;;;;;;6.13;1.30;;;21.20;69.20;;;;;;2603836;54;20046;31
2023/05/28 18:02:33;;;;;;;7.78;1.02;;;21.20;70.20;;;;;;2602961;54;20782;31
2023/05/28 18:05:51;;;;;;;7.15;1.50;;;21.10;70.80;;;;;;2603192;54;20873;31
2023/05/28 18:08:41;;;;;;;8.35;1.50;;;21.10;70.40;;;;;;2603730;54;20883;31
2023/05/28 18:11:20;;;;;;;11.23;1.63;;;21.00;70.20;;;;;;2603845;54;20037;31
2023/05/28 18:14:04;;;;;;;3.70;1.10;;;21.00;70.60;;;;;;2603680;54;20125;31
2023/05/28 18:19:29;;;;;;;4.25;1.15;;;20.90;71.10;;;;;;2621770;46;25040;31
2023/05/28 18:22:10;;;;;;;4.95;1.40;;;20.80;70.60;;;;;;2603642;54;19939;31
2023/05/28 18:24:50;;;;;;;3.40;1.10;;;20.70;71.20;;;;;;2603598;54;20784;31
2023/05/28 18:31:04;;;;;;;2.00;1.10;;;20.60;70.90;;;;;;2603453;54;20838;31
2023/05/28 18:33:48;;;;;;;5.18;1.40;;;20.50;71.30;;;;;;2622200;46;20030;31
2023/05/28 18:39:40;;;;;;;3.25;1.50;;;20.40;72.50;;;;;;2603624;54;20018;31
2023/05/28 18:42:36;;;;;;;6.88;1.60;;;20.30;72.80;;;;;;2603352;54;20748;31
2023/05/28 18:45:19;;;;;;;4.20;1.52;;;20.30;74.40;;;;;;2621856;46;20081;31
2023/05/28 18:48:21;;;;;;;5.63;1.70;;;20.20;74.90;;;;;;2702200;39;21462;31
2023/05/28 18:51:00;;;;;;;4.10;1.90;;;20.10;73.30;;;;;;2622061;46;20748;31
2023/05/28 18:53:44;;;;;;;7.63;2.13;;;20.00;73.50;;;;;;2603628;54;20081;31
2023/05/28 18:56:32;;;;;;;10.13;1.90;;;19.90;75.80;;;;;;2603030;54;20053;31
2023/05/28 18:59:24;;;;;;;9.85;2.20;;;19.70;78.00;;;;;;2606216;46;20030;31
2023/05/28 19:02:08;;;;;;;10.80;1.67;;;19.60;79.10;;;;;;2602781;54;20030;31
2023/05/28 19:05:28;;;;;;;8.35;1.50;;;19.50;79.90;;;;;;2622110;46;20046;31
2023/05/28 19:08:05;;;;;;;9.30;2.25;;;19.30;80.10;;;;;;2603539;54;20046;31
2023/05/28 19:10:43;;;;;;;22.95;3.00;;;19.20;82.40;;;;;;2622047;46;20026;31
2023/05/28 19:13:24;;;;;;;14.38;1.98;;;19.10;83.70;;;;;;2603384;54;20026;31
2023/05/28 19:16:05;;;;;;;18.17;2.50;;;18.90;86.40;;;;;;2622006;46;20839;31
2023/05/28 19:18:46;;;;;;;12.02;2.10;;;18.80;85.00;;;;;;2621994;46;20668;31
2023/05/28 19:24:41;;;;;;;8.27;2.10;;;18.60;90.10;;;;;;2602902;54;20026;31
2023/05/28 19:30:33;;;;;;;12.52;2.60;;;18.20;91.90;;;;;;2603263;54;20026;31
2023/05/28 19:33:22;;;;;;;8.90;2.10;;;18.00;92.00;;;;;;2602740;54;20878;31
2023/05/28 19:38:51;;;;;;;18.90;3.05;;;17.80;94.30;;;;;;2603307;54;20121;31
2023/05/28 19:41:34;;;;;;;10.85;2.05;;;17.70;97.10;;;;;;2621330;46;20038;31
2023/05/28 19:44:12;;;;;;;7.63;2.15;;;17.60;99.20;;;;;;2603396;54;20034;31
2023/05/28 19:46:51;;;;;;;15.55;3.17;;;17.50;99.90;;;;;;2603347;54;20019;31
2023/05/28 19:49:26;;;;;;;8.82;2.72;;;17.30;99.90;;;;;;2603439;54;20026;31
2023/05/28 19:52:10;;;;;;;27.13;4.15;;;17.20;99.90;;;;;;2603393;54;20023;31
2023/05/28 19:55:09;;;;;;;19.65;3.50;;;17.10;99.90;;;;;;2603288;54;20030;31
2023/05/28 19:58:07;;;;;;;13.05;4.13;;;17.00;99.90;;;;;;2622112;46;20029;31
2023/05/28 20:00:56;;;;;;;12.40;4.72;;;17.00;99.90;;;;;;2603161;54;20026;31
2023/05/28 20:03:37;;;;;;;9.10;3.55;;;16.80;99.90;;;;;;2622285;46;21130;31
2023/05/28 20:12:19;;;;;;;9.70;4.85;;;16.60;99.90;;;;;;2602843;54;20893;31
2023/05/28 20:15:02;;;;;;;12.73;4.05;;;16.60;99.90;;;;;;2603285;46;22440;31
2023/05/28 20:17:50;;;;;;;7.00;3.92;;;16.50;99.90;;;;;;2603244;54;20925;31
2023/05/28 20:23:08;;;;;;;9.13;4.50;;;16.50;99.90;;;;;;2640489;39;19981;-94
2023/05/28 20:25:48;;;;;;;11.80;5.75;;;16.40;99.90;;;;;;2620450;46;20072;31
2023/05/28 20:28:30;;;;;;;9.93;4.07;;;16.30;99.90;;;;;;2602297;54;20042;31
2023/05/28 20:31:15;;;;;;;8.73;3.58;;;16.30;99.90;;;;;;2613376;46;20018;31
2023/05/28 20:33:57;;;;;;;15.20;5.00;;;16.30;99.90;;;;;;2602596;54;20814;31
2023/05/28 20:36:34;;;;;;;6.53;3.50;;;16.20;99.90;;;;;;2603266;54;20033;31
2023/05/28 20:39:24;;;;;;;8.93;3.13;;;16.10;99.90;;;;;;2603238;54;20096;31
2023/05/28 21:49:51;;;;;;;6.47;3.47;;;14.10;99.90;;;;;;2600647;54;20030;31
2023/05/28 22:10:43;;;;;;;9.27;3.80;;;13.40;99.90;;;;;;2603600;54;20250;31
2023/05/28 22:13:41;;;;;;;8.00;2.83;;;13.30;99.90;;;;;;2617683;46;20030;31
2023/05/28 22:16:47;;;;;;;6.97;3.33;;;13.20;99.90;;;;;;2603589;54;20978;31
2023/05/28 22:19:34;;;;;;;5.25;3.45;;;13.20;99.90;;;;;;2622205;46;20092;31
2023/05/28 22:25:22;;;;;;;6.40;3.30;;;13.20;99.90;;;;;;2603733;54;20312;31
2023/05/28 22:28:11;;;;;;;5.80;3.07;;;13.10;99.90;;;;;;2603746;54;20018;31
